Weather at Elizabeth City Regional Airport & Coast Guard Air Station

Public forecast

Using degrees Fahrenheit for public forecast. Weather courtesy of forecast.io.

Current aviation weather report (METAR) for Elizabeth City Regional Airport & Coast Guard Air Station

Retrieved 2020/09/30 16:54 UTC (40 minutes ago):

KECG 301654Z 27010KT 10SM CLR 22/13 A2993 RMK AO2 SLP136 T02220128

Aviation forecast (TAF) for Elizabeth City Regional Airport & Coast Guard Air Station

Retrieved 2020/09/30 12:54 UTC (5 hours ago):

TAF TAF COR KECG 301146Z 3012/0112 28011KT P6SM SCT015 BKN250 FM301700 25010KT P6SM SKC AMD NOT SKED